Time;durP1;ratioP1;P1;durP2;ratioP2;P2;SDS_P1;SDS_P2;PMS_P1;PMS_P2;Temp;Humidity;BMP_temperature;BMP_pressure;BME280_temperature;BME280_humidity;BME280_pressure;Samples;Min_cycle;Max_cycle;Signal;HPM_P1;HPM_P2
2024/01/14 00:01:53;;;;;;;;;;;0.50;86.50;;;;;;5088083;28;19939;-61
2024/01/14 00:04:26;;;;;;;;;;;0.40;86.60;;;;;;5106714;28;20354;-62
2024/01/14 00:06:53;;;;;;;;;;;0.50;86.60;;;;;;5109715;27;19924;-61
2024/01/14 00:09:27;;;;;;;;;;;0.50;86.60;;;;;;5107145;27;19927;-60
2024/01/14 00:12:01;;;;;;;;;;;0.50;86.60;;;;;;5119627;27;19923;-63
2024/01/14 00:14:34;;;;;;;;;;;0.40;86.40;;;;;;5110920;27;19939;-65
2024/01/14 00:17:07;;;;;;;;;;;0.40;86.60;;;;;;5114572;27;19930;-63
2024/01/14 00:19:40;;;;;;;;;;;0.50;86.40;;;;;;5112009;27;19930;-63
2024/01/14 00:22:13;;;;;;;;;;;0.50;86.50;;;;;;5105708;27;19963;-65
2024/01/14 00:24:49;;;;;;;;;;;0.50;86.50;;;;;;5119214;27;20375;-65
2024/01/14 00:27:22;;;;;;;;;;;0.50;86.30;;;;;;5121522;27;19924;-64
2024/01/14 00:29:57;;;;;;;;;;;0.40;86.40;;;;;;5115855;27;19939;-64
2024/01/14 00:32:30;;;;;;;;;;;0.50;86.40;;;;;;5089519;28;20340;-64
2024/01/14 00:35:03;;;;;;;;;;;0.40;86.40;;;;;;5107576;27;19963;-65
2024/01/14 00:37:36;;;;;;;;;;;0.50;86.40;;;;;;5122000;27;20011;-63
2024/01/14 00:40:11;;;;;;;;;;;0.40;86.40;;;;;;5110202;27;19963;-63
2024/01/14 00:42:44;;;;;;;;;;;0.40;86.40;;;;;;5108947;27;19924;-63
2024/01/14 00:45:17;;;;;;;;;;;0.40;86.40;;;;;;5090862;28;19928;-63
2024/01/14 00:47:50;;;;;;;;;;;0.40;86.60;;;;;;5096572;27;19930;-65
2024/01/14 00:50:23;;;;;;;;;;;0.40;86.50;;;;;;5113028;27;19924;-65
2024/01/14 00:52:56;;;;;;;;;;;0.40;86.40;;;;;;5119865;27;19923;-65
2024/01/14 00:55:30;;;;;;;;;;;0.40;86.50;;;;;;5104235;27;19947;-63
2024/01/14 00:58:04;;;;;;;;;;;0.50;86.40;;;;;;5113039;27;19983;-64
2024/01/14 01:00:37;;;;;;;;;;;0.40;86.50;;;;;;5094655;27;19979;-64
2024/01/14 01:03:10;;;;;;;;;;;0.40;86.40;;;;;;5101600;27;19932;-62
2024/01/14 01:05:43;;;;;;;;;;;0.50;86.30;;;;;;5101628;27;19934;-64
2024/01/14 01:08:16;;;;;;;;;;;0.40;86.30;;;;;;5098558;27;19928;-65
2024/01/14 01:10:50;;;;;;;;;;;0.40;86.30;;;;;;5093564;27;19943;-64
2024/01/14 01:13:24;;;;;;;;;;;0.40;86.40;;;;;;5102661;27;19931;-65
2024/01/14 01:15:57;;;;;;;;;;;0.40;86.20;;;;;;5117452;27;20371;-64
2024/01/14 01:18:30;;;;;;;;;;;0.40;86.20;;;;;;5100014;27;20271;-64
2024/01/14 01:21:03;;;;;;;;;;;0.40;86.30;;;;;;5113375;27;19935;-61
2024/01/14 01:23:36;;;;;;;;;;;0.40;86.40;;;;;;5094648;28;20014;-61
2024/01/14 01:26:10;;;;;;;;;;;0.40;86.30;;;;;;5096618;27;19923;-61
2024/01/14 01:28:44;;;;;;;;;;;0.40;86.40;;;;;;5107604;27;19928;-62
2024/01/14 01:31:17;;;;;;;;;;;0.40;86.40;;;;;;5105216;27;19945;-62
2024/01/14 01:33:51;;;;;;;;;;;0.50;86.40;;;;;;5108336;27;19931;-62
2024/01/14 01:36:24;;;;;;;;;;;0.40;86.40;;;;;;5094913;28;19924;-63
2024/01/14 01:38:57;;;;;;;;;;;0.40;86.50;;;;;;5091460;28;19928;-62
2024/01/14 01:41:31;;;;;;;;;;;0.40;86.40;;;;;;5112864;27;19930;-62
2024/01/14 01:44:05;;;;;;;;;;;0.40;86.50;;;;;;5114513;27;19928;-62
2024/01/14 01:46:39;;;;;;;;;;;0.40;86.40;;;;;;5096909;28;19930;-62
2024/01/14 01:49:12;;;;;;;;;;;0.40;86.50;;;;;;5107103;27;19924;-61
2024/01/14 01:51:47;;;;;;;;;;;0.40;86.60;;;;;;5089156;28;19931;-60
2024/01/14 01:54:22;;;;;;;;;;;0.40;86.50;;;;;;5091782;28;19924;-60
2024/01/14 01:56:57;;;;;;;;;;;0.40;86.60;;;;;;5109799;27;19995;-61
2024/01/14 01:59:32;;;;;;;;;;;0.40;86.70;;;;;;5117398;27;19950;-61
2024/01/14 02:02:05;;;;;;;;;;;0.40;86.80;;;;;;5102816;27;19928;-61
2024/01/14 02:04:39;;;;;;;;;;;0.40;87.00;;;;;;5093746;27;19925;-62
2024/01/14 02:07:12;;;;;;;;;;;0.40;86.90;;;;;;5110932;27;19969;-62
2024/01/14 02:09:45;;;;;;;;;;;0.40;87.20;;;;;;5106857;27;19974;-61
2024/01/14 02:12:19;;;;;;;;;;;0.30;87.40;;;;;;5109937;27;19924;-61
2024/01/14 02:14:53;;;;;;;;;;;0.30;87.40;;;;;;5097811;28;20268;-62
2024/01/14 02:17:26;;;;;;;;;;;0.30;87.50;;;;;;5083341;28;20276;-63
2024/01/14 02:19:59;;;;;;;;;;;0.30;87.60;;;;;;5110232;27;19931;-62
2024/01/14 02:22:34;;;;;;;;;;;0.30;87.60;;;;;;5110297;27;19931;-65
2024/01/14 02:25:09;;;;;;;;;;;0.30;87.70;;;;;;5113242;27;20031;-61
2024/01/14 02:27:42;;;;;;;;;;;0.30;87.50;;;;;;5104240;27;19931;-60
2024/01/14 02:30:15;;;;;;;;;;;0.40;87.60;;;;;;5097067;28;19969;-61
2024/01/14 02:32:50;;;;;;;;;;;0.40;87.50;;;;;;5091699;27;19924;-62
2024/01/14 02:35:23;;;;;;;;;;;0.40;87.60;;;;;;5108783;27;19924;-61
2024/01/14 02:37:56;;;;;;;;;;;0.30;87.70;;;;;;5115224;27;19985;-62
2024/01/14 02:40:24;;;;;;;;;;;0.30;87.70;;;;;;5099920;27;19928;-63
2024/01/14 02:42:57;;;;;;;;;;;0.20;87.80;;;;;;5108013;27;19939;-60
2024/01/14 02:45:30;;;;;;;;;;;0.30;87.80;;;;;;5118790;27;19923;-60
2024/01/14 02:47:57;;;;;;;;;;;0.30;87.70;;;;;;5116153;27;19927;-61
2024/01/14 02:50:30;;;;;;;;;;;0.30;87.70;;;;;;5109484;27;19931;-61
2024/01/14 02:53:03;;;;;;;;;;;0.30;87.60;;;;;;5116546;27;19939;-61
2024/01/14 02:55:37;;;;;;;;;;;0.20;87.70;;;;;;5113991;27;20002;-60
2024/01/14 02:58:11;;;;;;;;;;;0.30;87.60;;;;;;5116141;27;19931;-62
2024/01/14 03:00:44;;;;;;;;;;;0.30;87.60;;;;;;5099215;28;19931;-60
2024/01/14 03:03:18;;;;;;;;;;;0.20;87.70;;;;;;5099027;27;20014;-61
2024/01/14 03:05:51;;;;;;;;;;;0.20;87.60;;;;;;5087046;28;19924;-62
2024/01/14 03:08:25;;;;;;;;;;;0.30;87.50;;;;;;5102035;27;19928;-61
2024/01/14 03:10:59;;;;;;;;;;;0.30;87.50;;;;;;5103960;28;19928;-60
2024/01/14 03:13:33;;;;;;;;;;;0.20;87.60;;;;;;5094996;28;20011;-61
2024/01/14 03:16:06;;;;;;;;;;;0.30;87.60;;;;;;5103893;28;19923;-61
2024/01/14 03:18:39;;;;;;;;;;;0.30;87.60;;;;;;5099309;28;19974;-62
2024/01/14 03:21:16;;;;;;;;;;;0.30;87.50;;;;;;5090217;28;19944;-61
2024/01/14 03:23:49;;;;;;;;;;;0.20;87.60;;;;;;5114586;28;20014;-61
2024/01/14 03:26:23;;;;;;;;;;;0.20;87.60;;;;;;5118267;28;19924;-61
2024/01/14 03:28:57;;;;;;;;;;;0.20;87.60;;;;;;5116121;28;19965;-61
2024/01/14 03:31:30;;;;;;;;;;;0.30;87.60;;;;;;5108407;28;19931;-61
2024/01/14 03:34:03;;;;;;;;;;;0.20;87.50;;;;;;5117049;28;19924;-60
2024/01/14 03:36:36;;;;;;;;;;;0.20;87.50;;;;;;5106428;28;20394;-62
2024/01/14 03:39:09;;;;;;;;;;;0.20;87.40;;;;;;5112047;27;19947;-62
2024/01/14 03:41:44;;;;;;;;;;;0.30;87.50;;;;;;5104709;27;19930;-60
2024/01/14 03:44:18;;;;;;;;;;;0.30;87.50;;;;;;5102911;28;19927;-61
2024/01/14 03:46:51;;;;;;;;;;;0.20;87.40;;;;;;5097691;27;19930;-61
2024/01/14 03:49:24;;;;;;;;;;;0.20;87.40;;;;;;5110604;27;19931;-61
2024/01/14 03:51:57;;;;;;;;;;;0.30;87.40;;;;;;5121187;27;20364;-61
2024/01/14 03:54:30;;;;;;;;;;;0.30;87.30;;;;;;5120263;27;19924;-62
2024/01/14 03:57:04;;;;;;;;;;;0.20;87.40;;;;;;5117487;27;19976;-63
2024/01/14 03:59:31;;;;;;;;;;;0.20;87.30;;;;;;5099197;28;20417;-62
2024/01/14 04:02:04;;;;;;;;;;;0.20;87.40;;;;;;5109177;27;20469;-62
2024/01/14 04:04:37;;;;;;;;;;;0.20;87.30;;;;;;5117588;27;19928;-62
2024/01/14 04:07:04;;;;;;;;;;;0.20;87.30;;;;;;5108841;27;19939;-62
2024/01/14 04:09:37;;;;;;;;;;;0.20;87.30;;;;;;5114733;27;19976;-61
2024/01/14 04:12:11;;;;;;;;;;;0.20;87.20;;;;;;5104554;27;19930;-63
2024/01/14 04:14:45;;;;;;;;;;;0.20;87.20;;;;;;5108266;27;19969;-61
2024/01/14 04:17:18;;;;;;;;;;;0.20;87.20;;;;;;5114955;27;19923;-60
2024/01/14 04:19:51;;;;;;;;;;;0.20;87.20;;;;;;5111871;27;19927;-61
2024/01/14 04:22:24;;;;;;;;;;;0.20;87.20;;;;;;5100868;27;19977;-63
2024/01/14 04:24:57;;;;;;;;;;;0.20;87.10;;;;;;5099182;27;19924;-61
2024/01/14 04:27:31;;;;;;;;;;;0.20;87.10;;;;;;5104786;27;19969;-61
2024/01/14 04:30:06;;;;;;;;;;;0.20;87.10;;;;;;5104346;27;19935;-61
2024/01/14 04:32:46;;;;;;;;;;;0.20;87.20;;;;;;5089249;28;19924;-62
2024/01/14 04:35:19;;;;;;;;;;;0.20;87.10;;;;;;5093189;28;20332;-62
2024/01/14 04:37:52;;;;;;;;;;;0.20;87.10;;;;;;5119418;27;20280;-62
2024/01/14 04:40:25;;;;;;;;;;;0.20;87.20;;;;;;5119187;27;20026;-60
2024/01/14 04:42:59;;;;;;;;;;;0.20;87.10;;;;;;5116252;27;20012;-62
2024/01/14 04:45:34;;;;;;;;;;;0.20;87.20;;;;;;5118093;27;20030;-62
2024/01/14 04:48:01;;;;;;;;;;;0.20;87.10;;;;;;5101988;27;20184;-62
2024/01/14 04:50:35;;;;;;;;;;;0.20;87.00;;;;;;5088624;28;19935;-61
2024/01/14 04:53:09;;;;;;;;;;;0.10;87.00;;;;;;5091267;28;20287;-61
2024/01/14 04:55:42;;;;;;;;;;;0.10;87.20;;;;;;5117461;27;19931;-60
2024/01/14 04:58:16;;;;;;;;;;;0.20;87.10;;;;;;5117047;27;19924;-61
2024/01/14 05:00:51;;;;;;;;;;;0.20;87.10;;;;;;5100465;27;19941;-70
2024/01/14 05:03:24;;;;;;;;;;;0.20;87.10;;;;;;5113113;27;20393;-71
2024/01/14 05:05:58;;;;;;;;;;;0.20;87.00;;;;;;5105432;27;19924;-70
2024/01/14 05:08:31;;;;;;;;;;;0.20;87.00;;;;;;5095204;28;19956;-71
2024/01/14 05:11:04;;;;;;;;;;;0.20;87.10;;;;;;5116682;27;20316;-71
2024/01/14 05:13:38;;;;;;;;;;;0.20;87.10;;;;;;5099716;27;19932;-71
2024/01/14 05:16:12;;;;;;;;;;;0.20;87.00;;;;;;5098350;27;20387;-70
2024/01/14 05:18:39;;;;;;;;;;;0.20;87.10;;;;;;5107882;27;20370;-71
2024/01/14 05:21:14;;;;;;;;;;;0.20;87.00;;;;;;5110410;27;19969;-70
2024/01/14 05:23:47;;;;;;;;;;;0.10;87.20;;;;;;5114611;27;19999;-69
2024/01/14 05:26:20;;;;;;;;;;;0.20;87.10;;;;;;5103732;27;19968;-70
2024/01/14 05:28:59;;;;;;;;;;;0.20;87.10;;;;;;5106706;27;19927;-70
2024/01/14 05:31:32;;;;;;;;;;;0.10;87.10;;;;;;5113217;27;20031;-72
2024/01/14 05:34:05;;;;;;;;;;;0.10;87.00;;;;;;5097600;28;19935;-71
2024/01/14 05:36:38;;;;;;;;;;;0.20;87.10;;;;;;5112316;27;19934;-72
2024/01/14 05:39:11;;;;;;;;;;;0.20;87.00;;;;;;5099141;28;19939;-70
2024/01/14 05:41:44;;;;;;;;;;;0.10;87.10;;;;;;5107798;27;20481;-70
2024/01/14 05:44:18;;;;;;;;;;;0.20;87.00;;;;;;5095045;28;20458;-71
2024/01/14 05:46:52;;;;;;;;;;;0.10;87.10;;;;;;5097300;27;19995;-71
2024/01/14 05:49:25;;;;;;;;;;;0.10;87.10;;;;;;5110788;27;19928;-70
2024/01/14 05:51:58;;;;;;;;;;;0.10;87.10;;;;;;5121441;27;19923;-71
2024/01/14 05:54:31;;;;;;;;;;;0.20;87.00;;;;;;5101468;27;19924;-71
2024/01/14 05:57:05;;;;;;;;;;;0.10;87.10;;;;;;5096095;28;19939;-71
2024/01/14 05:59:40;;;;;;;;;;;0.10;87.00;;;;;;5105580;27;19961;-69
2024/01/14 06:02:13;;;;;;;;;;;0.10;87.00;;;;;;5114209;27;19984;-72
2024/01/14 06:04:46;;;;;;;;;;;0.20;87.10;;;;;;5108439;27;20401;-71
2024/01/14 06:07:19;;;;;;;;;;;0.20;87.10;;;;;;5100344;27;19976;-71
2024/01/14 06:09:52;;;;;;;;;;;0.20;87.00;;;;;;5105263;27;20058;-62
2024/01/14 06:12:25;;;;;;;;;;;0.20;87.10;;;;;;5116732;27;20004;-64
2024/01/14 06:15:00;;;;;;;;;;;0.20;87.10;;;;;;5101307;27;19924;-65
2024/01/14 06:17:33;;;;;;;;;;;0.20;87.20;;;;;;5086650;28;20336;-65
2024/01/14 06:20:07;;;;;;;;;;;0.20;87.10;;;;;;5103575;27;19928;-65
2024/01/14 06:22:40;;;;;;;;;;;0.20;87.20;;;;;;5096081;27;19935;-65
2024/01/14 06:25:13;;;;;;;;;;;0.20;87.20;;;;;;5110475;27;19923;-65
2024/01/14 06:27:46;;;;;;;;;;;0.20;87.20;;;;;;5116471;27;19923;-64
2024/01/14 06:30:20;;;;;;;;;;;0.20;87.20;;;;;;5115194;27;19928;-64
2024/01/14 06:32:55;;;;;;;;;;;0.10;87.20;;;;;;5096346;27;19980;-64
2024/01/14 06:35:28;;;;;;;;;;;0.20;87.30;;;;;;5108597;27;19928;-65
2024/01/14 06:38:01;;;;;;;;;;;0.20;87.10;;;;;;5112873;27;19923;-64
2024/01/14 06:40:34;;;;;;;;;;;0.20;87.10;;;;;;5106774;27;20007;-66
2024/01/14 06:43:08;;;;;;;;;;;0.20;87.20;;;;;;5110243;27;19927;-63
2024/01/14 06:45:42;;;;;;;;;;;0.20;87.10;;;;;;5101668;27;19959;-63
2024/01/14 06:48:16;;;;;;;;;;;0.20;87.00;;;;;;5103750;27;20359;-64
2024/01/14 06:50:49;;;;;;;;;;;0.10;87.10;;;;;;5096866;28;19927;-63
2024/01/14 06:53:22;;;;;;;;;;;0.20;87.30;;;;;;5099717;27;19934;-65
2024/01/14 06:55:55;;;;;;;;;;;0.20;87.20;;;;;;5107730;27;19928;-65
2024/01/14 06:58:28;;;;;;;;;;;0.20;87.20;;;;;;5115399;27;19970;-64
2024/01/14 07:01:03;;;;;;;;;;;0.20;87.20;;;;;;5109868;27;19950;-64
2024/01/14 07:03:36;;;;;;;;;;;0.20;87.20;;;;;;5106276;27;19966;-63
2024/01/14 07:06:09;;;;;;;;;;;0.20;87.10;;;;;;5100677;27;19992;-63
2024/01/14 07:08:43;;;;;;;;;;;0.20;87.30;;;;;;5103825;27;19932;-63
2024/01/14 07:11:16;;;;;;;;;;;0.10;87.40;;;;;;5091495;28;19928;-64
2024/01/14 07:13:49;;;;;;;;;;;0.20;87.50;;;;;;5090736;28;19932;-64
2024/01/14 07:16:23;;;;;;;;;;;0.20;87.60;;;;;;5086881;28;19924;-63
2024/01/14 07:18:57;;;;;;;;;;;0.20;87.60;;;;;;5111608;27;20126;-64
2024/01/14 07:21:31;;;;;;;;;;;0.20;87.60;;;;;;5087311;28;19935;-61
2024/01/14 07:24:04;;;;;;;;;;;0.10;87.80;;;;;;5094953;28;19930;-61
2024/01/14 07:26:37;;;;;;;;;;;0.20;87.80;;;;;;5117252;28;19924;-62
2024/01/14 07:29:10;;;;;;;;;;;0.20;87.70;;;;;;5107184;28;19924;-62
2024/01/14 07:31:45;;;;;;;;;;;0.20;87.70;;;;;;5104627;28;20434;-60
2024/01/14 07:34:18;;;;;;;;;;;0.20;87.70;;;;;;5100692;28;19938;-59
2024/01/14 07:36:51;;;;;;;;;;;0.20;87.70;;;;;;5116182;28;19980;-61
2024/01/14 07:39:24;;;;;;;;;;;0.20;87.70;;;;;;5108060;28;20019;-62
2024/01/14 07:41:57;;;;;;;;;;;0.20;87.50;;;;;;5115618;28;20381;-62
2024/01/14 07:44:31;;;;;;;;;;;0.20;87.60;;;;;;5074611;28;19959;-60
2024/01/14 07:47:06;;;;;;;;;;;0.20;87.50;;;;;;5116580;28;20523;-60
2024/01/14 07:49:39;;;;;;;;;;;0.20;87.50;;;;;;5106292;28;19928;-61
2024/01/14 07:52:12;;;;;;;;;;;0.20;87.60;;;;;;5110499;28;19927;-62
2024/01/14 07:54:45;;;;;;;;;;;0.20;87.40;;;;;;5096752;28;19935;-60
2024/01/14 07:57:18;;;;;;;;;;;0.20;87.40;;;;;;5097561;28;20057;-61
2024/01/14 07:59:51;;;;;;;;;;;0.20;87.20;;;;;;5105537;28;19927;-60
2024/01/14 08:02:26;;;;;;;;;;;0.20;87.20;;;;;;5103210;28;19928;-61
2024/01/14 08:04:59;;;;;;;;;;;0.20;87.20;;;;;;5104535;28;20362;-62
2024/01/14 08:07:32;;;;;;;;;;;0.20;87.30;;;;;;5095303;28;20724;-63
2024/01/14 08:10:06;;;;;;;;;;;0.20;87.40;;;;;;5100543;28;19928;-61
2024/01/14 08:12:39;;;;;;;;;;;0.20;87.40;;;;;;5087949;28;19994;-61
2024/01/14 08:15:19;;;;;;;;;;;0.30;87.20;;;;;;5110602;28;19954;-62
2024/01/14 08:17:54;;;;;;;;;;;0.20;87.30;;;;;;5091326;28;19984;-62
2024/01/14 08:20:27;;;;;;;;;;;0.20;87.30;;;;;;5111675;28;19938;-62
2024/01/14 08:23:00;;;;;;;;;;;0.20;87.20;;;;;;5104417;28;19934;-62
2024/01/14 08:25:34;;;;;;;;;;;0.30;87.20;;;;;;5106232;27;19924;-62
2024/01/14 08:28:07;;;;;;;;;;;0.20;87.10;;;;;;5115896;27;20290;-62
2024/01/14 08:30:40;;;;;;;;;;;0.20;87.40;;;;;;5090722;28;19928;-74
2024/01/14 08:33:14;;;;;;;;;;;0.20;87.40;;;;;;5121821;27;19933;-75
2024/01/14 08:35:47;;;;;;;;;;;0.20;87.50;;;;;;5110984;27;20390;-76
2024/01/14 08:38:20;;;;;;;;;;;0.20;87.50;;;;;;5097739;28;19924;-76
2024/01/14 08:41:00;;;;;;;;;;;0.30;87.40;;;;;;5097377;27;20350;-74
2024/01/14 08:43:33;;;;;;;;;;;0.20;87.20;;;;;;5119132;27;19930;-73
2024/01/14 08:46:06;;;;;;;;;;;0.20;87.30;;;;;;5106522;27;20018;-75
2024/01/14 08:48:40;;;;;;;;;;;0.20;87.30;;;;;;5105010;27;19959;-76
2024/01/14 08:51:13;;;;;;;;;;;0.30;87.20;;;;;;5108776;27;19934;-74
2024/01/14 08:53:46;;;;;;;;;;;0.20;87.30;;;;;;5096623;27;19934;-72
2024/01/14 08:56:19;;;;;;;;;;;0.20;87.40;;;;;;5104562;27;19931;-75
2024/01/14 08:58:52;;;;;;;;;;;0.20;87.60;;;;;;5109590;27;20015;-74
2024/01/14 09:01:26;;;;;;;;;;;0.20;87.30;;;;;;5099982;27;20055;-75
2024/01/14 09:04:00;;;;;;;;;;;0.20;87.40;;;;;;5117167;27;20009;-75
2024/01/14 09:06:36;;;;;;;;;;;0.20;87.40;;;;;;5108099;27;20381;-76
2024/01/14 09:09:09;;;;;;;;;;;0.20;87.40;;;;;;5106603;27;19969;-74
2024/01/14 09:11:45;;;;;;;;;;;0.20;87.20;;;;;;5108294;27;19931;-74
2024/01/14 09:14:18;;;;;;;;;;;0.20;87.30;;;;;;5110534;27;19939;-73
2024/01/14 09:16:51;;;;;;;;;;;0.20;87.10;;;;;;5109291;27;19923;-74
2024/01/14 09:19:25;;;;;;;;;;;0.20;87.20;;;;;;5105256;27;19932;-71
2024/01/14 09:21:58;;;;;;;;;;;0.10;87.00;;;;;;5111671;27;19927;-76
2024/01/14 09:24:31;;;;;;;;;;;0.20;86.90;;;;;;5101598;27;20386;-75
2024/01/14 09:27:04;;;;;;;;;;;0.20;86.90;;;;;;5104547;27;20035;-73
2024/01/14 09:29:44;;;;;;;;;;;0.20;86.80;;;;;;5110348;27;19935;-73
2024/01/14 09:32:17;;;;;;;;;;;0.20;86.70;;;;;;5112923;27;19924;-73
2024/01/14 09:34:51;;;;;;;;;;;0.20;86.70;;;;;;5118972;27;19954;-76
2024/01/14 09:37:25;;;;;;;;;;;0.20;86.50;;;;;;5097294;28;20353;-74
2024/01/14 09:39:58;;;;;;;;;;;0.20;86.50;;;;;;5114368;27;20332;-71
2024/01/14 09:42:33;;;;;;;;;;;0.20;86.40;;;;;;5099842;27;19928;-71
2024/01/14 09:45:06;;;;;;;;;;;0.20;86.40;;;;;;5090064;28;20491;-72
2024/01/14 09:47:40;;;;;;;;;;;0.20;86.40;;;;;;5116141;27;19923;-72
2024/01/14 09:50:16;;;;;;;;;;;0.20;86.40;;;;;;5098810;28;19931;-72
2024/01/14 09:52:51;;;;;;;;;;;0.20;86.30;;;;;;5117199;27;19935;-72
2024/01/14 09:55:24;;;;;;;;;;;0.20;86.20;;;;;;5095969;27;20010;-67
2024/01/14 09:58:00;;;;;;;;;;;0.20;86.20;;;;;;5108191;27;19939;-71
2024/01/14 10:00:33;;;;;;;;;;;0.20;86.40;;;;;;5108589;27;19924;-70
2024/01/14 10:03:07;;;;;;;;;;;0.20;86.50;;;;;;5097655;28;19924;-72
2024/01/14 10:05:43;;;;;;;;;;;0.20;86.30;;;;;;5088715;28;19935;-70
2024/01/14 10:08:16;;;;;;;;;;;0.20;86.10;;;;;;5093179;28;19928;-72
2024/01/14 10:10:51;;;;;;;;;;;0.20;86.00;;;;;;5105773;27;19928;-72
2024/01/14 10:13:24;;;;;;;;;;;0.20;86.00;;;;;;5092067;28;19932;-72
2024/01/14 10:15:57;;;;;;;;;;;0.20;86.10;;;;;;5098945;27;19928;-72
2024/01/14 10:18:30;;;;;;;;;;;0.20;86.10;;;;;;5109804;27;20281;-70
2024/01/14 10:21:05;;;;;;;;;;;0.30;86.10;;;;;;5116555;27;19924;-71
2024/01/14 10:23:32;;;;;;;;;;;0.20;86.10;;;;;;5099266;28;19928;-69
2024/01/14 10:26:06;;;;;;;;;;;0.30;86.00;;;;;;5104678;27;19924;-71
2024/01/14 10:28:39;;;;;;;;;;;0.30;86.00;;;;;;5119560;27;19923;-70
2024/01/14 10:31:12;;;;;;;;;;;0.30;86.10;;;;;;5113150;27;19927;-70
2024/01/14 10:33:45;;;;;;;;;;;0.30;85.80;;;;;;5101339;27;19928;-70
2024/01/14 10:36:20;;;;;;;;;;;0.30;85.80;;;;;;5118216;27;20374;-70
2024/01/14 10:38:53;;;;;;;;;;;0.40;85.80;;;;;;5101129;28;19930;-70
2024/01/14 10:41:26;;;;;;;;;;;0.30;85.60;;;;;;5091190;28;20271;-73
2024/01/14 10:43:59;;;;;;;;;;;0.30;85.80;;;;;;5098247;27;19928;-71
2024/01/14 10:46:34;;;;;;;;;;;0.30;85.80;;;;;;5107531;27;19924;-68
2024/01/14 10:49:08;;;;;;;;;;;0.30;85.80;;;;;;5106683;27;19927;-70
2024/01/14 10:51:43;;;;;;;;;;;0.40;85.70;;;;;;5116951;27;19936;-63
2024/01/14 10:54:20;;;;;;;;;;;0.40;85.80;;;;;;5111531;27;20396;-61
2024/01/14 10:56:56;;;;;;;;;;;0.40;85.70;;;;;;5099620;28;19924;-61
2024/01/14 10:59:30;;;;;;;;;;;0.40;85.60;;;;;;5116724;27;20302;-61
2024/01/14 11:02:08;;;;;;;;;;;0.50;85.50;;;;;;5115369;27;20362;-61
2024/01/14 11:04:41;;;;;;;;;;;0.40;85.40;;;;;;5096966;28;19932;-62
2024/01/14 11:07:16;;;;;;;;;;;0.40;85.40;;;;;;5096909;28;19981;-62
2024/01/14 11:09:50;;;;;;;;;;;0.50;85.30;;;;;;5095823;28;19935;-61
2024/01/14 11:12:33;;;;;;;;;;;0.50;85.40;;;;;;5109132;27;19928;-61
2024/01/14 11:15:08;;;;;;;;;;;0.50;85.10;;;;;;5089584;28;20455;-61
2024/01/14 11:17:46;;;;;;;;;;;0.40;85.10;;;;;;5087419;28;19928;-61
2024/01/14 11:20:21;;;;;;;;;;;0.50;85.20;;;;;;5106139;27;19932;-60
2024/01/14 11:22:56;;;;;;;;;;;0.50;85.10;;;;;;5115646;27;19963;-61
2024/01/14 11:25:31;;;;;;;;;;;0.40;85.20;;;;;;5100575;27;20015;-62
2024/01/14 11:28:06;;;;;;;;;;;0.40;85.20;;;;;;5109888;28;19959;-62
2024/01/14 11:30:50;;;;;;;;;;;0.40;85.10;;;;;;5097195;28;19931;-62
2024/01/14 11:33:26;;;;;;;;;;;0.40;85.20;;;;;;5092008;28;20332;-60
2024/01/14 11:36:00;;;;;;;;;;;0.50;85.30;;;;;;5112415;28;19932;-61
2024/01/14 11:38:35;;;;;;;;;;;0.50;85.10;;;;;;5090775;28;19931;-63
2024/01/14 11:41:25;;;;;;;;;;;0.50;85.40;;;;;;5108273;28;19951;-63
2024/01/14 11:44:00;;;;;;;;;;;0.50;85.10;;;;;;5108064;28;20030;-62
2024/01/14 11:46:37;;;;;;;;;;;0.50;85.20;;;;;;5107808;28;19924;-64
2024/01/14 11:49:11;;;;;;;;;;;0.50;85.00;;;;;;5110761;28;20044;-62
2024/01/14 11:51:52;;;;;;;;;;;0.50;84.90;;;;;;5104511;28;20043;-61
2024/01/14 11:54:27;;;;;;;;;;;0.50;85.10;;;;;;5075972;28;20358;-62
2024/01/14 11:57:01;;;;;;;;;;;0.40;85.00;;;;;;5095736;28;20374;-62
2024/01/14 11:59:34;;;;;;;;;;;0.50;85.20;;;;;;5108238;27;19943;-62
2024/01/14 12:02:14;;;;;;;;;;;0.50;85.20;;;;;;5115232;27;19924;-62
2024/01/14 12:04:47;;;;;;;;;;;0.50;85.20;;;;;;5103470;27;20031;-62
2024/01/14 12:07:20;;;;;;;;;;;0.60;85.20;;;;;;5120712;27;19952;-62
2024/01/14 12:09:55;;;;;;;;;;;0.60;85.20;;;;;;5100918;28;19935;-61
2024/01/14 12:12:28;;;;;;;;;;;0.60;85.10;;;;;;5091176;28;19927;-63
2024/01/14 12:14:55;;;;;;;;;;;0.60;85.20;;;;;;5089358;28;20359;-63
2024/01/14 12:17:28;;;;;;;;;;;0.60;85.00;;;;;;5107073;27;20334;-63
2024/01/14 12:20:03;;;;;;;;;;;0.70;85.10;;;;;;5113187;27;20396;-62
2024/01/14 12:22:36;;;;;;;;;;;0.70;85.00;;;;;;5118670;27;19927;-63
2024/01/14 12:25:11;;;;;;;;;;;0.60;85.00;;;;;;5115940;27;19954;-61
2024/01/14 12:27:45;;;;;;;;;;;0.60;85.00;;;;;;5108114;27;19928;-62
2024/01/14 12:30:29;;;;;;;;;;;0.70;85.00;;;;;;5111994;27;20019;-62
2024/01/14 12:33:10;;;;;;;;;;;0.70;84.90;;;;;;5112694;27;20439;-62
2024/01/14 12:35:43;;;;;;;;;;;0.80;85.00;;;;;;5106045;27;19924;-60
2024/01/14 12:38:16;;;;;;;;;;;0.80;84.70;;;;;;5098107;28;20008;-61
2024/01/14 12:40:51;;;;;;;;;;;0.70;84.80;;;;;;5095154;27;19939;-60
2024/01/14 12:43:24;;;;;;;;;;;0.70;84.70;;;;;;5111270;27;19959;-67
2024/01/14 12:45:57;;;;;;;;;;;0.70;84.80;;;;;;5114397;27;19978;-62
2024/01/14 12:48:25;;;;;;;;;;;0.80;84.80;;;;;;5090838;28;19990;-61
2024/01/14 12:50:59;;;;;;;;;;;0.80;84.60;;;;;;5091219;27;19952;-62
2024/01/14 12:53:32;;;;;;;;;;;0.70;84.60;;;;;;5109154;27;20026;-62
2024/01/14 12:56:11;;;;;;;;;;;0.70;84.50;;;;;;5097647;28;20022;-62
2024/01/14 12:58:45;;;;;;;;;;;0.80;84.50;;;;;;5086976;28;19934;-61
2024/01/14 13:01:17;;;;;;;;;;;0.90;84.40;;;;;;5088259;28;19974;-62
2024/01/14 13:03:50;;;;;;;;;;;0.80;84.20;;;;;;5109672;27;20385;-61
2024/01/14 13:06:23;;;;;;;;;;;0.80;84.10;;;;;;5107977;27;20382;-62
2024/01/14 13:08:56;;;;;;;;;;;0.80;84.10;;;;;;5119082;27;20035;-62
2024/01/14 13:11:31;;;;;;;;;;;0.80;84.20;;;;;;5109067;27;19950;-71
2024/01/14 13:14:04;;;;;;;;;;;0.80;84.10;;;;;;5103472;27;19963;-71
2024/01/14 13:16:37;;;;;;;;;;;0.80;84.10;;;;;;5099050;27;20377;-71
2024/01/14 13:19:10;;;;;;;;;;;0.80;84.10;;;;;;5101300;27;20378;-73
2024/01/14 13:21:43;;;;;;;;;;;0.80;84.10;;;;;;5102907;27;20010;-70
2024/01/14 13:24:16;;;;;;;;;;;0.80;83.80;;;;;;5102378;27;19932;-72
2024/01/14 13:26:51;;;;;;;;;;;0.80;83.80;;;;;;5111412;27;19924;-73
2024/01/14 13:29:24;;;;;;;;;;;0.80;83.70;;;;;;5108421;27;19972;-72
2024/01/14 13:31:57;;;;;;;;;;;0.80;83.70;;;;;;5117494;27;19931;-71
2024/01/14 13:34:30;;;;;;;;;;;0.80;83.60;;;;;;5103261;27;19935;-69
2024/01/14 13:37:03;;;;;;;;;;;0.80;83.60;;;;;;5108639;27;19931;-72
2024/01/14 13:39:38;;;;;;;;;;;0.90;83.70;;;;;;5118016;27;19929;-70
2024/01/14 13:42:07;;;;;;;;;;;0.80;83.80;;;;;;5113029;27;19923;-70
2024/01/14 13:44:40;;;;;;;;;;;0.80;83.60;;;;;;5120694;27;19932;-72
2024/01/14 13:47:14;;;;;;;;;;;0.80;83.40;;;;;;5106025;27;19924;-70
2024/01/14 13:49:41;;;;;;;;;;;0.80;83.50;;;;;;5107981;27;19928;-71
2024/01/14 13:52:15;;;;;;;;;;;0.90;83.40;;;;;;5095054;28;20832;-72
2024/01/14 13:54:47;;;;;;;;;;;0.80;83.40;;;;;;5116548;27;20032;-71
2024/01/14 13:57:22;;;;;;;;;;;0.80;83.50;;;;;;5120092;27;19959;-70
2024/01/14 13:59:55;;;;;;;;;;;0.80;83.50;;;;;;5107540;27;20026;-73
2024/01/14 14:02:31;;;;;;;;;;;0.80;83.30;;;;;;5099589;28;19924;-73
2024/01/14 14:05:05;;;;;;;;;;;0.70;83.50;;;;;;5103653;27;20011;-72
2024/01/14 14:07:38;;;;;;;;;;;0.70;83.40;;;;;;5082220;28;19924;-71
2024/01/14 14:10:12;;;;;;;;;;;0.80;83.30;;;;;;5099474;27;19962;-71
2024/01/14 14:12:47;;;;;;;;;;;0.70;83.60;;;;;;5106540;27;19927;-71
2024/01/14 14:15:20;;;;;;;;;;;0.70;83.50;;;;;;5097605;28;19951;-70
2024/01/14 14:17:53;;;;;;;;;;;0.70;83.30;;;;;;5109076;27;19936;-72
2024/01/14 14:20:26;;;;;;;;;;;0.70;83.40;;;;;;5110478;27;19963;-66
2024/01/14 14:23:02;;;;;;;;;;;0.70;83.30;;;;;;5096581;27;20015;-64
2024/01/14 14:25:35;;;;;;;;;;;0.70;83.50;;;;;;5108412;27;20013;-63
2024/01/14 14:28:10;;;;;;;;;;;0.70;83.30;;;;;;5105531;27;19932;-64
2024/01/14 14:30:43;;;;;;;;;;;0.70;83.20;;;;;;5090423;28;19931;-65
2024/01/14 14:33:16;;;;;;;;;;;0.70;83.30;;;;;;5112779;27;20370;-64
2024/01/14 14:35:49;;;;;;;;;;;0.70;83.30;;;;;;5096380;28;20282;-64
2024/01/14 14:38:22;;;;;;;;;;;0.70;83.30;;;;;;5108972;27;20178;-64
2024/01/14 14:40:55;;;;;;;;;;;0.70;83.20;;;;;;5109659;27;19927;-65
2024/01/14 14:43:31;;;;;;;;;;;0.70;83.20;;;;;;5100588;27;19928;-63
2024/01/14 14:46:05;;;;;;;;;;;0.70;83.20;;;;;;5102315;27;19977;-64
2024/01/14 14:48:38;;;;;;;;;;;0.70;83.00;;;;;;5102982;27;19939;-64
2024/01/14 14:51:11;;;;;;;;;;;0.70;83.20;;;;;;5102471;27;19930;-64
2024/01/14 14:53:44;;;;;;;;;;;0.70;83.20;;;;;;5089675;28;20182;-64
2024/01/14 14:56:24;;;;;;;;;;;0.70;83.20;;;;;;5096997;28;19924;-65
2024/01/14 14:58:59;;;;;;;;;;;0.70;83.20;;;;;;5114655;27;19928;-65
2024/01/14 15:01:32;;;;;;;;;;;0.60;83.20;;;;;;5099703;27;19924;-66
2024/01/14 15:04:05;;;;;;;;;;;0.60;83.30;;;;;;5108719;27;19935;-63
2024/01/14 15:06:38;;;;;;;;;;;0.70;83.40;;;;;;5103494;27;19932;-67
2024/01/14 15:09:06;;;;;;;;;;;0.70;83.40;;;;;;5100532;28;19957;-65